createdAt,value
2023-03-05T00:03:59.641Z,36.88
2023-03-05T00:12:05.090Z,39.00
2023-03-05T00:20:14.587Z,34.50
2023-03-05T00:28:20.176Z,30.17
2023-03-05T00:36:29.456Z,42.40
2023-03-05T00:44:35.762Z,40.50
2023-03-05T00:52:43.844Z,45.63
2023-03-05T01:00:50.758Z,40.20
2023-03-05T01:08:59.694Z,41.17
2023-03-05T01:17:05.476Z,43.40
2023-03-05T01:25:15.203Z,38.00
2023-03-05T01:33:20.761Z,39.10
2023-03-05T01:41:28.907Z,90.35
2023-03-05T01:49:37.023Z,41.20
2023-03-05T01:57:48.559Z,43.58
2023-03-05T02:05:53.978Z,37.80
2023-03-05T02:14:02.455Z,37.95
2023-03-05T02:22:17.931Z,31.42
2023-03-05T02:30:24.257Z,24.98
2023-03-05T02:38:32.372Z,29.58
2023-03-05T02:46:38.562Z,24.33
2023-03-05T02:54:46.740Z,26.77
2023-03-05T03:02:52.393Z,24.13
2023-03-05T03:11:06.622Z,21.42
2023-03-05T03:19:12.069Z,23.88
2023-03-05T03:27:19.946Z,26.05
2023-03-05T03:35:25.514Z,24.08
2023-03-05T03:43:33.700Z,22.30
2023-03-05T03:51:39.114Z,23.35
2023-03-05T03:59:47.249Z,22.08
2023-03-05T04:07:52.617Z,25.50
2023-03-05T04:16:00.780Z,28.13
2023-03-05T04:24:06.374Z,24.30
2023-03-05T04:32:14.765Z,26.40
2023-03-05T04:40:20.893Z,22.73
2023-03-05T04:48:28.948Z,29.02
2023-03-05T04:56:34.467Z,24.67
2023-03-05T05:04:45.255Z,24.40
2023-03-05T05:12:50.830Z,25.35
2023-03-05T05:20:58.962Z,21.65
2023-03-05T05:29:04.497Z,29.50
2023-03-05T05:37:12.536Z,36.70
2023-03-05T05:45:18.070Z,37.00
2023-03-05T05:53:27.018Z,32.13
2023-03-05T06:01:34.986Z,43.65
2023-03-05T06:09:43.106Z,38.88
2023-03-05T06:17:48.694Z,37.70
2023-03-05T06:25:58.856Z,41.80
2023-03-05T06:34:04.704Z,41.65
2023-03-05T06:42:13.048Z,41.75
2023-03-05T06:50:18.646Z,36.65
2023-03-05T06:58:27.065Z,46.70
2023-03-05T07:06:34.918Z,40.20
2023-03-05T07:14:43.064Z,45.53
2023-03-05T07:22:48.681Z,44.15
2023-03-05T07:31:02.458Z,51.28
2023-03-05T07:47:15.744Z,45.15
2023-03-05T07:55:21.334Z,47.55
2023-03-05T08:03:29.487Z,50.33
2023-03-05T08:11:35.173Z,47.85
2023-03-05T08:19:45.026Z,46.65
2023-03-05T08:27:51.257Z,50.92
2023-03-05T08:35:59.208Z,43.83
2023-03-05T08:44:05.123Z,44.08
2023-03-05T08:52:13.286Z,43.65
2023-03-05T09:00:19.529Z,41.58
2023-03-05T09:08:27.576Z,42.13
2023-03-05T09:16:33.198Z,38.72
2023-03-05T09:24:41.356Z,40.85
2023-03-05T09:32:47.058Z,45.28
2023-03-05T09:41:02.534Z,36.45
2023-03-05T09:49:18.196Z,42.00
2023-03-05T09:57:32.084Z,38.58
2023-03-05T10:05:56.613Z,33.90
2023-03-05T10:14:06.945Z,36.38
2023-03-05T10:22:22.060Z,34.15
2023-03-05T10:30:54.834Z,33.60
2023-03-05T10:39:28.206Z,31.50
2023-03-05T10:47:47.725Z,33.25
2023-03-05T10:55:56.752Z,29.38
2023-03-05T11:04:36.505Z,29.30
2023-03-05T11:12:42.358Z,26.95
2023-03-05T11:20:50.875Z,30.25
2023-03-05T11:29:00.802Z,31.77
2023-03-05T11:37:10.582Z,27.55
2023-03-05T11:45:22.323Z,25.55
2023-03-05T11:53:36.121Z,30.42
2023-03-05T12:01:46.777Z,29.73
2023-03-05T12:09:56.154Z,30.23
2023-03-05T12:18:13.935Z,29.15
2023-03-05T12:26:43.299Z,30.73
2023-03-05T12:34:53.430Z,30.30
2023-03-05T12:43:03.535Z,33.00
2023-03-05T12:51:31.126Z,32.50
2023-03-05T12:59:48.319Z,33.53
2023-03-05T13:07:54.030Z,36.63
2023-03-05T13:16:03.524Z,35.65
2023-03-05T13:24:23.327Z,30.98
2023-03-05T13:32:37.417Z,30.02
2023-03-05T13:40:44.956Z,31.90
2023-03-05T13:48:58.104Z,33.60
2023-03-05T13:57:08.834Z,34.40
2023-03-05T14:05:25.767Z,30.70
2023-03-05T14:13:33.779Z,36.10
2023-03-05T14:21:53.511Z,37.40
2023-03-05T14:30:00.480Z,45.58
2023-03-05T14:38:08.930Z,38.03
2023-03-05T14:46:18.080Z,68.90
2023-03-05T14:54:29.517Z,37.15
2023-03-05T15:02:35.007Z,39.33
2023-03-05T15:10:43.136Z,36.38
2023-03-05T15:18:48.971Z,34.35
2023-03-05T15:26:57.107Z,36.35
2023-03-05T15:35:04.857Z,36.65
2023-03-05T15:43:14.989Z,29.15
2023-03-05T15:51:23.103Z,33.72
2023-03-05T15:59:31.777Z,33.50
2023-03-05T16:07:39.852Z,33.30
2023-03-05T16:15:53.379Z,31.00
2023-03-05T16:23:59.604Z,28.23
2023-03-05T16:32:08.836Z,24.85
2023-03-05T16:40:16.057Z,23.52
2023-03-05T16:48:24.154Z,22.52
2023-03-05T16:56:30.080Z,23.40
2023-03-05T17:04:38.195Z,25.10
2023-03-05T17:12:44.350Z,22.45
2023-03-05T17:20:59.020Z,22.80
2023-03-05T17:29:04.702Z,19.27
2023-03-05T17:37:12.748Z,21.30
2023-03-05T17:45:18.725Z,22.23
2023-03-05T17:53:30.181Z,20.13
2023-03-05T18:01:37.291Z,22.20
2023-03-05T18:09:47.287Z,19.13
2023-03-05T18:17:53.232Z,20.75
2023-03-05T18:26:01.367Z,20.15
2023-03-05T18:34:06.795Z,19.60
2023-03-05T18:42:17.750Z,17.90
2023-03-05T18:50:24.582Z,16.52
2023-03-05T18:58:32.800Z,18.25
2023-03-05T19:06:38.934Z,17.35
2023-03-05T19:14:46.988Z,16.35
2023-03-05T19:22:53.037Z,16.92
2023-03-05T19:31:01.079Z,16.63
2023-03-05T19:39:07.475Z,20.60
2023-03-05T19:47:18.460Z,18.85
2023-03-05T19:55:24.092Z,19.45
2023-03-05T20:03:32.297Z,17.60
2023-03-05T20:11:38.082Z,16.33
2023-03-05T20:19:46.405Z,17.65
2023-03-05T20:27:51.842Z,18.42
2023-03-05T20:36:01.420Z,15.57
2023-03-05T20:44:07.731Z,18.02
2023-03-05T20:52:15.739Z,16.50
2023-03-05T21:00:21.836Z,23.27
2023-03-05T21:08:29.859Z,19.00
2023-03-05T21:16:35.495Z,22.02
2023-03-05T21:25:21.159Z,16.73
2023-03-05T21:33:28.557Z,18.55
2023-03-05T21:41:36.618Z,12.65
2023-03-05T21:49:41.984Z,12.00
2023-03-05T21:57:50.225Z,11.90
2023-03-05T22:05:55.922Z,12.70
2023-03-05T22:14:04.067Z,12.77
2023-03-05T22:22:09.659Z,13.18
2023-03-05T22:30:18.169Z,11.60
2023-03-05T22:38:24.418Z,12.05
2023-03-05T22:46:32.454Z,11.90
2023-03-05T22:54:37.818Z,11.77
2023-03-05T23:02:48.885Z,11.57
2023-03-05T23:10:54.323Z,9.30
2023-03-05T23:19:02.496Z,10.65
2023-03-05T23:27:09.406Z,10.13
2023-03-05T23:35:19.594Z,8.52
2023-03-05T23:43:27.546Z,8.93
2023-03-05T23:51:35.561Z,8.80
2023-03-05T23:59:40.898Z,9.35
